createdAt,value
2018-06-11T00:00:57.822Z,17.90
2018-06-11T00:05:01.131Z,17.90
2018-06-11T00:09:07.143Z,17.90
2018-06-11T00:13:10.491Z,17.90
2018-06-11T00:17:13.852Z,17.90
2018-06-11T00:21:17.182Z,17.80
2018-06-11T00:25:20.495Z,17.80
2018-06-11T00:29:23.818Z,17.80
2018-06-11T00:33:27.210Z,17.70
2018-06-11T00:41:33.631Z,17.70
2018-06-11T00:45:36.946Z,17.60
2018-06-11T00:49:40.293Z,17.60
2018-06-11T00:53:43.634Z,17.50
2018-06-11T00:57:47.026Z,17.50
2018-06-11T01:05:53.406Z,17.50
2018-06-11T01:09:56.748Z,17.50
2018-06-11T01:14:00.102Z,17.40
2018-06-11T01:18:03.464Z,17.40
2018-06-11T01:22:06.817Z,17.40
2018-06-11T01:26:10.134Z,17.40
2018-06-11T01:30:13.495Z,17.30
2018-06-11T01:34:16.835Z,17.30
2018-06-11T01:38:20.174Z,17.30
2018-06-11T01:42:23.507Z,17.30
2018-06-11T01:46:26.822Z,17.20
2018-06-11T01:50:30.155Z,17.20
2018-06-11T01:54:33.482Z,17.20
2018-06-11T01:58:36.838Z,17.20
2018-06-11T02:02:40.178Z,17.20
2018-06-11T02:06:43.501Z,17.10
2018-06-11T02:10:46.858Z,17.10
2018-06-11T02:14:51.029Z,17.10
2018-06-11T02:18:54.379Z,17.10
2018-06-11T02:22:57.737Z,17.10
2018-06-11T02:27:01.099Z,17.10
2018-06-11T02:31:04.436Z,17.00
2018-06-11T02:35:07.766Z,17.00
2018-06-11T02:39:11.185Z,16.90
2018-06-11T02:43:14.536Z,16.90
2018-06-11T02:47:17.858Z,16.90
2018-06-11T02:51:21.319Z,16.80
2018-06-11T02:55:24.668Z,16.80
2018-06-11T02:59:28.014Z,16.80
2018-06-11T03:03:31.342Z,16.70
2018-06-11T03:07:34.654Z,16.70
2018-06-11T03:11:39.168Z,16.70
2018-06-11T03:15:42.530Z,16.70
2018-06-11T03:19:45.881Z,16.70
2018-06-11T03:23:49.221Z,16.70
2018-06-11T03:27:52.535Z,16.70
2018-06-11T03:31:55.963Z,16.70
2018-06-11T03:35:59.295Z,16.70
2018-06-11T03:40:02.643Z,16.70
2018-06-11T03:44:06.003Z,16.70
2018-06-11T03:52:12.396Z,16.70
2018-06-11T03:56:15.725Z,16.70
2018-06-11T04:00:19.054Z,16.60
2018-06-11T04:04:22.378Z,16.70
2018-06-11T04:08:25.726Z,16.60
2018-06-11T04:12:29.047Z,16.60
2018-06-11T04:16:32.418Z,16.60
2018-06-11T04:20:35.752Z,16.60
2018-06-11T04:24:39.083Z,16.60
2018-06-11T04:28:42.430Z,16.60
2018-06-11T04:32:45.738Z,16.50
2018-06-11T04:36:49.059Z,16.50
2018-06-11T04:40:52.398Z,16.50
2018-06-11T04:44:55.718Z,16.50
2018-06-11T04:48:59.046Z,16.40
2018-06-11T04:53:02.379Z,16.40
2018-06-11T04:57:05.720Z,16.40
2018-06-11T05:01:09.048Z,16.40
2018-06-11T05:05:12.371Z,16.50
2018-06-11T05:09:15.703Z,16.50
2018-06-11T05:13:19.038Z,16.50
2018-06-11T05:17:22.397Z,16.50
2018-06-11T05:21:25.764Z,16.60
2018-06-11T05:25:29.111Z,16.60
2018-06-11T05:29:32.447Z,16.60
2018-06-11T05:33:35.775Z,16.60
2018-06-11T05:37:39.142Z,16.70
2018-06-11T05:41:42.462Z,16.70
2018-06-11T05:45:45.791Z,16.70
2018-06-11T05:49:49.112Z,16.70
2018-06-11T05:53:52.436Z,16.70
2018-06-11T05:57:55.759Z,16.80
2018-06-11T06:01:59.208Z,16.80
2018-06-11T06:06:02.542Z,16.80
2018-06-11T06:10:05.954Z,16.90
2018-06-11T06:14:09.337Z,16.90
2018-06-11T06:18:12.661Z,16.90
2018-06-11T06:22:16.006Z,16.90
2018-06-11T06:26:19.329Z,16.90
2018-06-11T06:30:22.665Z,16.90
2018-06-11T06:34:26.064Z,16.90
2018-06-11T06:38:29.334Z,17.00
2018-06-11T06:42:32.663Z,17.00
2018-06-11T06:46:35.995Z,17.00
2018-06-11T06:50:39.310Z,17.10
2018-06-11T06:54:42.615Z,17.10
2018-06-11T06:58:45.948Z,17.20
2018-06-11T07:02:49.272Z,17.20
2018-06-11T07:06:52.609Z,17.30
2018-06-11T07:10:56.055Z,17.40
2018-06-11T07:14:59.389Z,17.50
2018-06-11T07:19:02.731Z,17.50
2018-06-11T07:23:06.066Z,17.50
2018-06-11T07:27:09.477Z,17.60
2018-06-11T07:31:12.763Z,17.60
2018-06-11T07:35:16.070Z,17.70
2018-06-11T07:39:19.399Z,17.80
2018-06-11T07:43:22.795Z,17.90
2018-06-11T07:47:26.135Z,18.00
2018-06-11T07:51:29.599Z,18.10
2018-06-11T07:55:32.907Z,18.20
2018-06-11T07:59:36.252Z,18.30
2018-06-11T08:07:42.663Z,18.50
2018-06-11T08:11:46.127Z,18.60
2018-06-11T08:15:49.447Z,18.70
2018-06-11T08:19:52.771Z,18.80
2018-06-11T08:23:56.103Z,18.90
2018-06-11T08:27:59.447Z,19.00
2018-06-11T08:32:02.770Z,19.10
2018-06-11T08:36:06.135Z,19.10
2018-06-11T08:40:09.430Z,19.20
2018-06-11T08:44:12.764Z,19.30
2018-06-11T08:48:16.100Z,19.50
2018-06-11T08:52:19.443Z,19.60
2018-06-11T08:56:22.767Z,19.80
2018-06-11T09:00:26.134Z,20.00
2018-06-11T09:04:29.458Z,20.10
2018-06-11T09:08:32.789Z,20.40
2018-06-11T09:12:36.173Z,20.50
2018-06-11T09:16:39.559Z,20.60
2018-06-11T09:20:42.888Z,20.60
2018-06-11T09:24:46.223Z,20.70
2018-06-11T09:28:49.558Z,20.80
2018-06-11T09:32:52.919Z,20.90
2018-06-11T09:36:56.246Z,21.00
2018-06-11T09:40:59.563Z,21.20
2018-06-11T09:45:02.907Z,21.40
2018-06-11T09:49:06.298Z,21.40
2018-06-11T09:53:09.595Z,21.60
2018-06-11T09:57:12.923Z,21.70
2018-06-11T10:01:16.296Z,21.80
2018-06-11T10:05:19.628Z,21.90
2018-06-11T10:09:23.017Z,22.10
2018-06-11T10:13:26.343Z,22.30
2018-06-11T10:17:29.715Z,22.50
2018-06-11T10:21:33.103Z,22.70
2018-06-11T10:25:36.436Z,22.90
2018-06-11T10:29:39.780Z,23.10
2018-06-11T10:33:43.087Z,23.30
2018-06-11T10:37:46.419Z,23.50
2018-06-11T10:41:49.747Z,23.70
2018-06-11T10:45:53.081Z,23.80
2018-06-11T10:49:56.405Z,24.00
2018-06-11T10:58:02.896Z,24.10
2018-06-11T11:02:06.178Z,24.20
2018-06-11T11:06:09.504Z,24.30
2018-06-11T11:10:12.819Z,24.40
2018-06-11T11:14:16.185Z,24.50
2018-06-11T11:18:19.503Z,24.60
2018-06-11T11:22:22.803Z,24.60
2018-06-11T11:26:26.140Z,24.80
2018-06-11T11:30:29.464Z,25.00
2018-06-11T11:34:32.794Z,25.30
2018-06-11T11:38:36.139Z,25.40
2018-06-11T11:46:42.524Z,25.60
2018-06-11T11:50:45.847Z,25.70
2018-06-11T11:54:49.167Z,25.80
2018-06-11T11:58:52.495Z,25.80
2018-06-11T12:02:55.818Z,25.90
2018-06-11T12:06:59.151Z,26.00
2018-06-11T12:11:02.515Z,26.10
2018-06-11T12:15:05.859Z,26.20
2018-06-11T12:19:09.226Z,26.30
2018-06-11T12:23:12.563Z,26.20
2018-06-11T12:27:15.887Z,26.30
2018-06-11T12:31:19.273Z,26.40
2018-06-11T12:35:22.586Z,26.40
2018-06-11T12:39:25.911Z,26.50
2018-06-11T12:43:29.239Z,26.50
2018-06-11T12:47:32.612Z,26.60
2018-06-11T12:51:35.930Z,26.60
2018-06-11T12:55:39.275Z,26.60
2018-06-11T12:59:42.631Z,26.70
2018-06-11T13:03:45.992Z,26.70
2018-06-11T13:07:49.316Z,26.70
2018-06-11T13:11:52.768Z,26.80
2018-06-11T13:15:56.134Z,26.80
2018-06-11T13:19:59.474Z,26.90
2018-06-11T13:24:02.797Z,27.00
2018-06-11T13:28:06.190Z,27.00
2018-06-11T13:32:09.503Z,27.10
2018-06-11T13:36:12.863Z,27.10
2018-06-11T13:40:16.188Z,27.20
2018-06-11T13:44:19.521Z,27.20
2018-06-11T13:48:22.835Z,27.20
2018-06-11T13:52:26.250Z,27.20
2018-06-11T13:56:29.584Z,27.30
2018-06-11T14:00:32.986Z,27.30
2018-06-11T14:04:36.320Z,27.20
2018-06-11T14:08:39.626Z,27.20
2018-06-11T14:12:43.017Z,27.30
2018-06-11T14:16:46.364Z,27.30
2018-06-11T14:24:52.763Z,27.40
2018-06-11T14:28:56.072Z,27.50
2018-06-11T14:32:59.571Z,27.50
2018-06-11T14:37:02.918Z,27.50
2018-06-11T14:41:06.298Z,27.60
2018-06-11T14:45:09.626Z,27.50
2018-06-11T14:49:12.976Z,27.60
2018-06-11T14:53:16.315Z,27.60
2018-06-11T14:57:19.676Z,27.60
2018-06-11T15:05:26.166Z,27.60
2018-06-11T15:09:29.526Z,27.70
2018-06-11T15:13:32.859Z,27.70
2018-06-11T15:17:36.241Z,27.80
2018-06-11T15:21:39.599Z,27.70
2018-06-11T15:25:43.382Z,27.60
2018-06-11T15:29:46.722Z,27.60
2018-06-11T15:33:50.052Z,27.60
2018-06-11T15:37:53.371Z,27.50
2018-06-11T15:41:56.702Z,27.50
2018-06-11T15:46:00.039Z,27.50
2018-06-11T15:50:03.408Z,27.50
2018-06-11T15:54:06.730Z,27.50
2018-06-11T15:58:10.083Z,27.60
2018-06-11T16:02:13.424Z,27.60
2018-06-11T16:06:16.766Z,27.70
2018-06-11T16:10:21.139Z,27.70
2018-06-11T16:14:24.504Z,27.60
2018-06-11T16:18:27.989Z,27.50
2018-06-11T16:22:31.331Z,27.40
2018-06-11T16:26:34.671Z,27.20
2018-06-11T16:30:38.016Z,27.10
2018-06-11T16:34:41.346Z,27.00
2018-06-11T16:38:44.680Z,26.80
2018-06-11T16:42:48.039Z,26.70
2018-06-11T16:46:51.414Z,26.50
2018-06-11T16:50:54.862Z,26.40
2018-06-11T16:54:58.215Z,26.30
2018-06-11T16:59:01.558Z,26.10
2018-06-11T17:07:08.163Z,25.80
2018-06-11T17:11:11.524Z,25.60
2018-06-11T17:15:14.886Z,25.40
2018-06-11T17:19:18.219Z,25.20
2018-06-11T17:23:21.564Z,25.10
2018-06-11T17:27:24.903Z,25.10
2018-06-11T17:31:28.240Z,25.00
2018-06-11T17:35:31.572Z,24.90
2018-06-11T17:39:35.009Z,24.90
2018-06-11T17:43:38.343Z,24.80
2018-06-11T17:47:41.681Z,24.70
2018-06-11T17:51:45.050Z,24.60
2018-06-11T17:55:48.387Z,24.40
2018-06-11T17:59:51.859Z,24.30
2018-06-11T18:03:55.190Z,24.20
2018-06-11T18:07:58.521Z,24.00
2018-06-11T18:12:01.870Z,23.90
2018-06-11T18:16:05.235Z,23.80
2018-06-11T18:20:08.563Z,23.60
2018-06-11T18:24:11.907Z,23.60
2018-06-11T18:28:15.250Z,23.40
2018-06-11T18:32:18.572Z,23.30
2018-06-11T18:36:21.888Z,23.20
2018-06-11T18:40:25.282Z,23.10
2018-06-11T18:44:29.171Z,23.00
2018-06-11T18:48:32.519Z,22.90
2018-06-11T18:52:35.863Z,22.80
2018-06-11T18:56:39.198Z,22.70
2018-06-11T19:00:42.527Z,22.50
2018-06-11T19:04:45.863Z,22.40
2018-06-11T19:08:49.235Z,22.30
2018-06-11T19:12:52.571Z,22.20
2018-06-11T19:16:55.910Z,22.00
2018-06-11T19:20:59.286Z,21.90
2018-06-11T19:25:02.627Z,21.80
2018-06-11T19:29:05.959Z,21.70
2018-06-11T19:33:15.756Z,21.60
2018-06-11T19:37:19.088Z,21.50
2018-06-11T19:41:22.423Z,21.40
2018-06-11T19:45:25.747Z,21.30
2018-06-11T19:49:29.070Z,21.30
2018-06-11T19:53:32.390Z,21.20
2018-06-11T19:57:36.427Z,21.10
2018-06-11T20:01:40.038Z,21.00
2018-06-11T20:05:44.443Z,20.90
2018-06-11T20:09:48.802Z,20.80
2018-06-11T20:13:52.235Z,20.70
2018-06-11T20:17:55.819Z,20.50
2018-06-11T20:22:00.170Z,20.40
2018-06-11T20:26:03.873Z,20.40
2018-06-11T20:30:07.315Z,20.30
2018-06-11T20:34:10.978Z,20.20
2018-06-11T20:38:14.855Z,20.10
2018-06-11T20:42:18.855Z,20.00
2018-06-11T20:46:22.432Z,19.90
2018-06-11T20:50:25.962Z,19.70
2018-06-11T20:54:30.035Z,19.70
2018-06-11T20:58:33.631Z,19.60
2018-06-11T21:02:38.003Z,19.50
2018-06-11T21:06:41.808Z,19.40
2018-06-11T21:10:45.223Z,19.30
2018-06-11T21:14:48.979Z,19.20
2018-06-11T21:18:53.342Z,19.10
2018-06-11T21:22:58.254Z,19.00
2018-06-11T21:27:02.512Z,18.90
2018-06-11T21:31:07.442Z,18.80
2018-06-11T21:35:12.487Z,18.70
2018-06-11T21:39:17.613Z,18.60
2018-06-11T21:43:21.853Z,18.40
2018-06-11T21:47:26.875Z,18.40
2018-06-11T21:51:33.567Z,18.20
2018-06-11T21:55:37.624Z,18.10
2018-06-11T21:59:40.955Z,18.10
2018-06-11T22:03:44.314Z,18.00
2018-06-11T22:07:47.627Z,17.90
2018-06-11T22:11:50.963Z,17.80
2018-06-11T22:15:54.330Z,17.70
2018-06-11T22:19:57.664Z,17.60
2018-06-11T22:24:00.976Z,17.50
2018-06-11T22:28:04.306Z,17.50
2018-06-11T22:32:14.119Z,17.40
2018-06-11T22:36:17.455Z,17.30
2018-06-11T22:40:22.391Z,17.20
2018-06-11T22:48:30.570Z,17.10
2018-06-11T22:52:34.505Z,17.00
2018-06-11T22:56:37.865Z,17.00
2018-06-11T23:00:41.194Z,16.90
2018-06-11T23:04:44.512Z,16.80
2018-06-11T23:08:47.859Z,16.80
2018-06-11T23:12:51.186Z,16.70
2018-06-11T23:16:54.581Z,16.60
2018-06-11T23:20:57.927Z,16.50
2018-06-11T23:25:01.258Z,16.40
2018-06-11T23:29:04.668Z,16.40
2018-06-11T23:33:08.003Z,16.30
2018-06-11T23:37:11.374Z,16.20
2018-06-11T23:41:14.782Z,16.20
2018-06-11T23:45:18.120Z,16.10
2018-06-11T23:49:21.441Z,16.00
2018-06-11T23:53:24.798Z,15.90
2018-06-11T23:57:28.126Z,15.80
